Time;durP1;ratioP1;P1;durP2;ratioP2;P2;SDS_P1;SDS_P2;PMS_P1;PMS_P2;Temp;Humidity;BMP_temperature;BMP_pressure;BME280_temperature;BME280_humidity;BME280_pressure;Samples;Min_cycle;Max_cycle;Signal;HPM_P1;HPM_P2
2022/05/18 00:01:59;;;;;;;5.42;1.67;;;;;;;7.09;55.12;99899.50;1742293;82;21014;-69
2022/05/18 00:04:27;;;;;;;4.03;2.10;;;;;;;7.07;55.21;99903.92;1742596;82;21112;-70
2022/05/18 00:06:53;;;;;;;3.72;1.20;;;;;;;7.04;55.29;99902.25;1706649;83;21025;-70
2022/05/18 00:09:19;;;;;;;6.55;2.30;;;;;;;7.00;55.83;99893.20;1742877;82;21125;-70
2022/05/18 00:11:47;;;;;;;6.12;1.32;;;;;;;6.98;56.10;99900.23;1742668;82;22231;-69
2022/05/18 00:14:14;;;;;;;3.10;1.77;;;;;;;6.96;56.88;99902.87;1746171;82;21049;-69
2022/05/18 00:16:42;;;;;;;5.83;2.05;;;;;;;6.94;56.94;99906.83;1747748;82;21060;-68
2022/05/18 00:19:08;;;;;;;5.47;1.85;;;;;;;6.92;57.09;99912.59;1747780;82;21143;-68
2022/05/18 00:21:35;;;;;;;4.15;1.40;;;;;;;6.89;57.24;99915.27;1747910;80;21253;-69
2022/05/18 00:24:03;;;;;;;2.72;1.00;;;;;;;6.85;57.80;99920.16;1747934;82;21593;-69
2022/05/18 00:26:31;;;;;;;6.95;1.02;;;;;;;6.80;57.74;99917.26;1748181;82;21060;-70
2022/05/18 00:28:58;;;;;;;3.75;1.15;;;;;;;6.75;57.87;99913.45;1748259;82;21088;-69
2022/05/18 00:31:24;;;;;;;4.03;1.30;;;;;;;6.71;58.66;99919.64;1748164;82;21025;-70
2022/05/18 00:33:52;;;;;;;2.08;1.00;;;;;;;6.65;58.85;99918.51;1748173;80;22141;-70
2022/05/18 00:36:19;;;;;;;3.87;1.00;;;;;;;6.59;58.65;99916.03;1748002;82;21104;-69
2022/05/18 00:38:45;;;;;;;1.85;0.90;;;;;;;6.53;58.80;99916.17;1748362;82;21128;-69
2022/05/18 00:41:12;;;;;;;1.98;1.00;;;;;;;6.47;59.10;99919.34;1747969;82;21026;-70
2022/05/18 00:43:43;;;;;;;1.87;1.00;;;;;;;6.41;59.76;99923.41;1748252;82;21613;-69
2022/05/18 00:46:14;;;;;;;2.20;1.30;;;;;;;6.38;60.31;99923.48;1748031;82;21178;-69
2022/05/18 00:48:41;;;;;;;2.77;1.40;;;;;;;6.37;60.48;99926.98;1748294;82;21052;-70
2022/05/18 00:51:21;;;;;;;7.53;1.77;;;;;;;6.35;60.90;99926.19;1748056;80;21104;-68
2022/05/18 00:53:58;;;;;;;6.58;2.00;;;;;;;6.35;61.07;99928.80;1747847;82;21548;-70
2022/05/18 00:56:39;;;;;;;5.33;1.80;;;;;;;6.35;61.23;99928.80;1748056;82;21498;-69
2022/05/18 00:59:14;;;;;;;11.88;4.50;;;;;;;6.31;61.34;99924.53;1746664;82;21572;-69
2022/05/18 01:01:40;;;;;;;19.85;9.23;;;;;;;6.30;62.01;99926.72;1747667;81;21109;-70
2022/05/18 01:04:06;;;;;;;39.05;17.70;;;;;;;6.29;62.70;99927.63;1747835;82;21198;-70
2022/05/18 01:06:44;;;;;;;41.02;20.05;;;;;;;6.29;62.75;99930.23;1747618;82;21096;-68
2022/05/18 01:09:31;;;;;;;63.63;30.43;;;;;;;6.28;63.53;99929.80;1747842;82;21081;-70
2022/05/18 01:11:58;;;;;;;52.80;26.77;;;;;;;6.27;63.71;99928.10;1748012;82;21818;-70
2022/05/18 01:14:39;;;;;;;60.52;28.30;;;;;;;6.25;63.94;99935.12;1728540;82;21125;-69
2022/05/18 01:17:06;;;;;;;58.10;29.10;;;;;;;6.22;65.29;99932.58;1720712;83;21077;-70
2022/05/18 01:19:41;;;;;;;49.90;24.95;;;;;;;6.22;65.29;99932.58;1720505;82;21061;-70
2022/05/18 01:22:18;;;;;;;68.42;32.00;;;;;;;6.20;65.84;99930.44;1720673;83;21072;-69
2022/05/18 01:24:51;;;;;;;95.07;41.28;;;;;;;6.18;66.26;99936.16;1720809;83;21143;-70
2022/05/18 01:27:17;;;;;;;104.38;47.73;;;;;;;6.17;66.47;99939.67;1720745;82;21051;-71
2022/05/18 01:29:44;;;;;;;122.55;56.48;;;;;;;6.14;66.72;99934.49;1720842;83;21010;-69
2022/05/18 01:32:14;;;;;;;125.97;59.23;;;;;;;6.13;67.01;99938.02;1721000;83;21570;-69
2022/05/18 01:34:42;;;;;;;147.87;65.65;;;;;;;6.09;67.58;99935.45;1721022;82;21546;-69
2022/05/18 01:37:10;;;;;;;153.57;70.55;;;;;;;6.09;67.75;99938.52;1720904;83;21286;-69
2022/05/18 01:39:47;;;;;;;162.90;77.20;;;;;;;6.07;67.84;99950.33;1720923;83;21061;-70
2022/05/18 01:42:25;;;;;;;149.57;66.57;;;;;;;6.06;68.40;99944.67;1721289;83;21034;-69
2022/05/18 01:44:52;;;;;;;159.70;74.87;;;;;;;6.06;68.44;99950.36;1721148;83;21597;-71
2022/05/18 01:47:18;;;;;;;155.97;71.10;;;;;;;6.03;68.83;99943.44;1721025;83;21074;-69
2022/05/18 01:49:45;;;;;;;120.85;55.95;;;;;;;6.01;69.77;99955.68;1721047;82;21560;-69
2022/05/18 01:52:12;;;;;;;197.78;87.82;;;;;;;5.98;70.00;99949.64;1720676;83;21072;-70
2022/05/18 01:54:41;;;;;;;175.38;80.25;;;;;;;5.97;71.18;99954.02;1720746;83;21070;-69
2022/05/18 01:57:08;;;;;;;174.18;78.30;;;;;;;5.94;71.01;99958.02;1721040;83;21057;-70
2022/05/18 01:59:36;;;;;;;142.93;68.62;;;;;;;5.92;71.23;99944.53;1720881;83;21073;-70
2022/05/18 02:02:06;;;;;;;177.27;77.20;;;;;;;5.88;71.91;99947.19;1721543;82;21110;-71
2022/05/18 02:04:34;;;;;;;174.80;74.57;;;;;;;5.86;72.16;99945.50;1723885;83;21055;-70
2022/05/18 02:07:01;;;;;;;153.15;70.60;;;;;;;5.84;72.49;99948.59;1723481;83;21142;-69
2022/05/18 02:09:28;;;;;;;149.55;64.60;;;;;;;5.80;73.33;99956.11;1724000;83;21070;-70
2022/05/18 02:11:55;;;;;;;128.12;60.33;;;;;;;5.75;73.89;99961.42;1723789;83;21122;-68
2022/05/18 02:14:24;;;;;;;110.83;50.33;;;;;;;5.72;74.52;99963.22;1723758;83;21003;-70
2022/05/18 02:16:52;;;;;;;100.58;47.38;;;;;;;5.65;75.50;99959.86;1723887;82;22172;-69
2022/05/18 02:19:18;;;;;;;107.05;46.15;;;;;;;5.65;75.56;99959.86;1723776;82;22200;-69
2022/05/18 02:21:45;;;;;;;92.47;41.28;;;;;;;5.63;75.95;99966.42;1723626;83;21055;-69
2022/05/18 02:24:12;;;;;;;90.55;38.08;;;;;;;5.62;76.31;99968.63;1724103;82;21050;-70
2022/05/18 02:26:39;;;;;;;66.47;30.62;;;;;;;5.60;76.35;99965.18;1723633;83;22087;-70
2022/05/18 02:29:05;;;;;;;68.00;28.73;;;;;;;5.60;76.77;99967.80;1723614;82;21051;-70
2022/05/18 02:31:32;;;;;;;59.93;25.55;;;;;;;5.58;77.53;99960.88;1723528;82;21066;-69
2022/05/18 02:33:59;;;;;;;61.08;25.75;;;;;;;5.59;78.14;99967.39;1723720;83;21087;-70
2022/05/18 02:36:26;;;;;;;53.15;23.00;;;;;;;5.60;78.71;99963.87;1723679;82;21567;-68
2022/05/18 02:38:53;;;;;;;50.08;20.97;;;;;;;5.61;78.93;99966.92;1723945;83;21539;-69
2022/05/18 02:41:20;;;;;;;55.70;21.50;;;;;;;5.63;79.13;99963.80;1723696;82;21062;-70
2022/05/18 02:43:46;;;;;;;47.17;21.50;;;;;;;5.66;79.35;99966.83;1723908;83;21039;-69
2022/05/18 02:46:19;;;;;;;53.10;24.10;;;;;;;5.71;79.51;99962.82;1723735;83;21043;-69
2022/05/18 02:48:46;;;;;;;49.88;23.07;;;;;;;5.74;79.74;99967.97;1723971;82;21014;-69
2022/05/18 02:51:15;;;;;;;53.80;22.35;;;;;;;5.78;80.44;99963.96;1723525;83;21941;-69
2022/05/18 02:53:42;;;;;;;51.90;23.00;;;;;;;5.84;80.77;99961.66;1723604;82;21122;-70
2022/05/18 02:56:15;;;;;;;44.50;20.45;;;;;;;5.92;80.92;99966.30;1723499;82;21075;-69
2022/05/18 02:58:44;;;;;;;38.17;16.10;;;;;;;6.02;80.73;99972.22;1723482;83;21079;-70
2022/05/18 03:01:17;;;;;;;30.15;14.50;;;;;;;6.07;81.11;99972.55;1723404;83;21093;-69
2022/05/18 03:03:45;;;;;;;31.60;14.73;;;;;;;6.12;81.20;99969.84;1726733;82;21151;-69
2022/05/18 03:06:14;;;;;;;25.82;12.70;;;;;;;6.17;80.93;99977.59;1727655;83;21615;-70
2022/05/18 03:08:42;;;;;;;25.85;12.68;;;;;;;6.20;80.69;99974.44;1727795;83;21045;-70
2022/05/18 03:11:09;;;;;;;29.98;12.75;;;;;;;6.20;80.91;99973.59;1727822;83;21614;-70
2022/05/18 03:13:35;;;;;;;30.92;12.80;;;;;;;6.21;81.55;99977.91;1721888;83;21047;-68
2022/05/18 03:16:03;;;;;;;25.08;12.63;;;;;;;6.20;81.15;99978.82;1711404;82;21267;-70
2022/05/18 03:18:30;;;;;;;32.70;13.48;;;;;;;6.20;81.63;99983.59;1711338;83;21603;-70
2022/05/18 03:23:41;;;;;;;27.55;11.85;;;;;;;6.24;82.23;99987.88;1711425;83;21061;-70
2022/05/18 03:26:17;;;;;;;24.30;11.20;;;;;;;6.26;82.74;99982.17;1711680;83;21063;-70
2022/05/18 03:28:47;;;;;;;27.30;11.95;;;;;;;6.28;82.60;99989.53;1711646;83;21085;-70
2022/05/18 03:31:15;;;;;;;26.17;11.05;;;;;;;6.30;82.59;99993.41;1690049;83;21044;-70
2022/05/18 03:33:42;;;;;;;29.55;12.63;;;;;;;6.31;82.75;99987.30;1711851;83;21075;-69
2022/05/18 03:36:12;;;;;;;32.33;14.18;;;;;;;6.33;82.67;99990.74;1711647;83;21059;-69
2022/05/18 03:38:39;;;;;;;38.42;16.23;;;;;;;6.34;82.62;99996.38;1711783;83;21149;-70
2022/05/18 03:41:06;;;;;;;37.55;13.93;;;;;;;6.34;83.87;99997.68;1711956;83;21301;-70
2022/05/18 03:43:33;;;;;;;34.08;14.00;;;;;;;6.35;84.11;99999.42;1711677;83;21028;-70
2022/05/18 03:45:59;;;;;;;30.57;14.18;;;;;;;6.38;83.69;100004.58;1712265;82;21559;-70
2022/05/18 03:48:27;;;;;;;34.75;14.87;;;;;;;6.46;83.66;100005.25;1711696;83;21190;-69
2022/05/18 03:50:54;;;;;;;35.80;17.98;;;;;;;6.53;84.15;99994.20;1711841;83;21571;-69
2022/05/18 03:53:20;;;;;;;40.95;17.30;;;;;;;6.59;83.79;100006.30;1711621;83;21235;-69
2022/05/18 03:55:47;;;;;;;30.77;15.65;;;;;;;6.64;83.54;100003.13;1711489;83;21072;-69
2022/05/18 03:58:16;;;;;;;45.95;18.37;;;;;;;6.69;83.21;100009.11;1711943;83;21012;-68
2022/05/18 04:00:45;;;;;;;33.20;15.93;;;;;;;6.72;83.34;99994.66;1711728;83;21024;-71
2022/05/18 04:03:12;;;;;;;35.30;15.63;;;;;;;6.78;82.88;100003.66;1711833;83;21854;-69
2022/05/18 04:05:41;;;;;;;40.33;15.70;;;;;;;6.87;82.91;100006.52;1711859;83;21777;-70
2022/05/18 04:08:12;;;;;;;42.17;17.70;;;;;;;6.93;82.69;100011.16;1711721;83;21055;-68
2022/05/18 04:10:40;;;;;;;38.53;18.35;;;;;;;6.96;82.57;100006.75;1711876;83;21116;-68
2022/05/18 04:13:11;;;;;;;38.53;17.23;;;;;;;6.98;82.82;100014.13;1716996;82;21024;-70
2022/05/18 04:15:38;;;;;;;39.85;19.70;;;;;;;7.04;82.69;100010.03;1722469;82;21062;-70
2022/05/18 04:18:05;;;;;;;49.23;21.85;;;;;;;7.07;82.66;100015.21;1742702;82;21289;-71
2022/05/18 04:20:31;;;;;;;47.98;21.85;;;;;;;7.11;82.58;100018.17;1742809;82;21141;-70
2022/05/18 04:22:58;;;;;;;66.85;29.48;;;;;;;7.20;82.37;100027.11;1742818;82;21059;-70
2022/05/18 04:25:27;;;;;;;73.17;28.32;;;;;;;7.31;81.90;100023.74;1742989;82;21067;-69
2022/05/18 04:27:55;;;;;;;101.67;42.93;;;;;;;7.43;81.67;100026.53;1742636;81;21066;-70
2022/05/18 04:30:25;;;;;;;101.18;45.52;;;;;;;7.52;80.71;100031.95;1743114;82;21103;-69
2022/05/18 04:32:53;;;;;;;95.07;43.80;;;;;;;7.55;80.33;100026.66;1742754;82;21015;-70
2022/05/18 04:35:22;;;;;;;97.88;42.55;;;;;;;7.60;79.54;100027.39;1742715;82;21564;-69
2022/05/18 04:37:49;;;;;;;86.47;38.75;;;;;;;7.66;79.60;100023.73;1742690;82;21103;-71
2022/05/18 04:40:16;;;;;;;76.02;33.78;;;;;;;7.77;79.13;100032.17;1742758;82;21067;-70
2022/05/18 04:42:42;;;;;;;66.40;30.55;;;;;;;7.90;78.86;100023.53;1742786;82;21179;-70
2022/05/18 04:45:11;;;;;;;58.28;25.43;;;;;;;8.07;78.05;100034.39;1742828;81;21097;-69
2022/05/18 04:47:38;;;;;;;51.05;23.95;;;;;;;8.27;77.19;100025.11;1742562;82;21594;-70
2022/05/18 04:50:06;;;;;;;53.80;25.70;;;;;;;8.42;76.39;100029.95;1742930;82;21582;-71
2022/05/18 04:52:33;;;;;;;60.52;28.10;;;;;;;8.53;75.64;100027.83;1742615;82;21055;-70
2022/05/18 04:55:01;;;;;;;63.00;27.52;;;;;;;8.63;75.36;100031.48;1742718;82;21142;-69
2022/05/18 04:57:27;;;;;;;66.57;28.83;;;;;;;8.64;74.68;100027.52;1742440;82;21035;-70
2022/05/18 04:59:54;;;;;;;67.45;31.30;;;;;;;8.65;74.25;100028.36;1742971;82;21052;-70
2022/05/18 05:02:20;;;;;;;77.58;34.50;;;;;;;8.71;74.14;100036.91;1742563;82;21059;-69
2022/05/18 05:04:46;;;;;;;71.25;34.23;;;;;;;8.74;74.24;100029.39;1742845;82;21078;-69
2022/05/18 05:07:14;;;;;;;65.10;29.25;;;;;;;8.74;73.99;100036.84;1742708;82;21075;-71
2022/05/18 05:09:41;;;;;;;73.60;32.65;;;;;;;8.74;74.43;100033.33;1742990;82;21000;-71
2022/05/18 05:12:08;;;;;;;64.42;28.77;;;;;;;8.77;74.00;100041.13;1721589;82;21093;-72
2022/05/18 05:16:34;;;;;;;55.08;25.27;;;;;;;8.71;74.49;100041.31;1795958;79;27971;-70
2022/05/18 05:19:00;;;;;;;46.98;22.15;;;;;;;8.53;74.53;100045.35;1756643;81;21573;-71
2022/05/18 05:21:27;;;;;;;44.60;20.85;;;;;;;8.47;75.35;100041.62;1756673;81;22173;-70
2022/05/18 05:23:53;;;;;;;41.50;18.20;;;;;;;8.43;75.56;100046.55;1756450;81;21010;-69
2022/05/18 05:26:20;;;;;;;36.20;16.25;;;;;;;8.40;75.67;100048.81;1756396;81;21037;-70
2022/05/18 05:28:47;;;;;;;39.63;17.20;;;;;;;8.38;76.10;100048.81;1790611;80;21537;-70
2022/05/18 05:31:13;;;;;;;40.43;17.98;;;;;;;8.34;76.69;100055.50;1790723;80;20994;-70
2022/05/18 05:33:41;;;;;;;34.95;17.62;;;;;;;8.33;76.54;100056.42;1790561;80;21515;-68
2022/05/18 05:36:08;;;;;;;39.20;16.65;;;;;;;8.33;76.56;100056.42;1790579;80;21004;-70
2022/05/18 05:38:37;;;;;;;40.43;16.35;;;;;;;8.28;76.76;100061.80;1790808;80;21033;-69
2022/05/18 05:41:03;;;;;;;31.23;15.20;;;;;;;8.28;76.71;100068.79;1790667;80;21627;-69
2022/05/18 05:43:33;;;;;;;38.53;16.20;;;;;;;8.28;77.05;100060.91;1790899;80;21542;-70
2022/05/18 05:46:03;;;;;;;36.70;16.10;;;;;;;8.31;76.81;100067.41;1790582;80;21281;-71
2022/05/18 05:48:30;;;;;;;35.00;16.23;;;;;;;8.32;77.50;100072.59;1789705;80;21021;-69
2022/05/18 05:50:58;;;;;;;40.73;19.07;;;;;;;8.30;77.74;100071.77;1790681;80;21044;-71
2022/05/18 05:53:25;;;;;;;48.40;19.82;;;;;;;8.28;77.40;100066.16;1790457;80;21517;-70
2022/05/18 05:55:51;;;;;;;41.55;20.77;;;;;;;8.29;77.55;100063.51;1790213;80;20996;-71
2022/05/18 05:58:18;;;;;;;48.65;21.23;;;;;;;8.27;77.41;100072.33;1790395;80;21131;-70
2022/05/18 06:00:47;;;;;;;37.35;17.75;;;;;;;8.24;77.39;100071.97;1790168;80;21024;-71
2022/05/18 06:03:15;;;;;;;39.55;17.92;;;;;;;8.26;77.45;100075.84;1790463;80;21087;-70
2022/05/18 06:05:41;;;;;;;45.48;20.32;;;;;;;8.27;77.76;100073.64;1790500;80;21005;-70
2022/05/18 06:08:08;;;;;;;51.13;23.40;;;;;;;8.25;78.39;100071.05;1790371;80;21016;-70
2022/05/18 06:10:35;;;;;;;49.98;22.85;;;;;;;8.19;78.53;100078.66;1790429;80;21063;-70
2022/05/18 06:13:07;;;;;;;46.15;20.90;;;;;;;8.17;78.48;100078.30;1790489;80;21033;-71
2022/05/18 06:15:33;;;;;;;46.28;22.60;;;;;;;8.13;78.95;100082.75;1788182;80;21071;-70
2022/05/18 06:18:00;;;;;;;47.48;23.35;;;;;;;8.13;79.14;100085.84;1784975;80;21001;-70
2022/05/18 06:20:27;;;;;;;61.18;27.55;;;;;;;8.07;79.65;100082.91;1785241;80;21083;-70
2022/05/18 06:22:54;;;;;;;54.83;26.73;;;;;;;7.99;80.29;100092.77;1785132;80;21505;-70
2022/05/18 06:25:20;;;;;;;65.97;30.27;;;;;;;7.94;80.45;100099.91;1785552;80;21533;-71
2022/05/18 06:27:47;;;;;;;73.00;34.50;;;;;;;7.92;81.02;100101.70;1784667;80;21098;-70
2022/05/18 06:30:15;;;;;;;80.92;37.05;;;;;;;7.91;81.26;100103.90;1784936;80;21067;-70
2022/05/18 06:32:42;;;;;;;68.60;34.25;;;;;;;7.92;81.35;100109.11;1784570;80;21092;-71
2022/05/18 06:35:09;;;;;;;86.40;39.78;;;;;;;7.90;81.83;100110.06;1785041;80;21107;-70
2022/05/18 06:37:36;;;;;;;78.90;38.95;;;;;;;7.86;82.06;100110.58;1784565;80;21553;-70
2022/05/18 06:40:07;;;;;;;76.10;36.08;;;;;;;7.84;81.68;100112.38;1785070;80;21548;-70
2022/05/18 06:42:34;;;;;;;70.90;32.63;;;;;;;7.81;82.52;100111.61;1784765;80;20993;-71
2022/05/18 06:45:04;;;;;;;70.42;30.48;;;;;;;7.80;82.91;100113.80;1785318;80;21017;-71
2022/05/18 06:47:31;;;;;;;62.58;30.43;;;;;;;7.81;82.69;100112.92;1784617;80;21835;-71
2022/05/18 06:49:59;;;;;;;57.10;26.80;;;;;;;7.84;82.71;100115.45;1784683;80;21005;-71
2022/05/18 06:52:26;;;;;;;61.28;27.93;;;;;;;7.84;83.53;100120.23;1784714;80;21000;-71
2022/05/18 06:54:54;;;;;;;59.35;27.15;;;;;;;7.88;83.00;100114.48;1784591;80;21118;-69
2022/05/18 06:57:21;;;;;;;49.88;24.57;;;;;;;7.93;82.97;100116.06;1784683;80;21542;-70
2022/05/18 06:59:48;;;;;;;48.80;24.25;;;;;;;8.03;83.01;100114.51;1785052;80;21211;-69
2022/05/18 07:02:15;;;;;;;54.15;24.98;;;;;;;8.10;82.69;100118.26;1784439;80;21153;-71
2022/05/18 07:04:41;;;;;;;54.33;24.40;;;;;;;8.24;82.13;100119.66;1784908;80;21068;-70
2022/05/18 07:07:09;;;;;;;54.63;25.25;;;;;;;8.36;82.70;100117.53;1784389;80;22202;-70
2022/05/18 07:09:36;;;;;;;55.80;24.47;;;;;;;8.47;83.51;100114.64;1784646;80;21001;-71
2022/05/18 07:12:04;;;;;;;45.55;20.97;;;;;;;8.57;84.16;100113.46;1784649;80;21452;-70
2022/05/18 07:14:33;;;;;;;45.43;20.43;;;;;;;8.64;83.23;100114.61;1761315;80;21533;-69
2022/05/18 07:17:00;;;;;;;38.90;17.80;;;;;;;8.72;83.15;100119.16;1748397;81;21041;-70
2022/05/18 07:19:30;;;;;;;39.88;18.42;;;;;;;8.75;83.53;100121.72;1748155;82;21049;-69
2022/05/18 07:21:55;;;;;;;39.55;17.77;;;;;;;8.75;84.51;100126.97;1747551;82;21561;-70
2022/05/18 07:24:21;;;;;;;35.17;16.60;;;;;;;8.76;84.88;100133.92;1747771;82;21208;-71
2022/05/18 07:26:48;;;;;;;39.40;16.45;;;;;;;8.77;86.70;100135.66;1747899;82;21104;-71
2022/05/18 07:29:14;;;;;;;31.82;14.93;;;;;;;8.76;87.98;100133.92;1747903;82;21040;-70
2022/05/18 07:34:28;;;;;;;27.35;11.95;;;;;;;8.85;92.83;100133.65;1747982;82;21040;-70
2022/05/18 07:36:55;;;;;;;29.32;12.63;;;;;;;8.94;93.91;100145.19;1748077;82;21115;-69
2022/05/18 07:39:22;;;;;;;27.37;12.60;;;;;;;9.07;93.91;100143.53;1747798;82;21032;-70
2022/05/18 07:41:49;;;;;;;20.10;10.68;;;;;;;9.19;94.56;100135.26;1748017;82;21029;-71
2022/05/18 07:44:16;;;;;;;22.60;11.38;;;;;;;9.37;95.67;100137.30;1748032;82;21104;-71
2022/05/18 07:46:43;;;;;;;20.70;10.63;;;;;;;9.63;94.50;100141.70;1747822;82;21066;-71
2022/05/18 07:49:09;;;;;;;20.08;9.95;;;;;;;9.77;93.06;100141.25;1748098;82;21723;-70
2022/05/18 07:51:36;;;;;;;18.62;9.55;;;;;;;9.85;92.08;100140.55;1747753;82;21534;-70
2022/05/18 07:54:03;;;;;;;15.80;8.70;;;;;;;9.92;91.17;100145.61;1747855;82;21061;-71
2022/05/18 07:56:31;;;;;;;18.23;8.70;;;;;;;9.97;89.87;100151.57;1747924;82;21040;-71
2022/05/18 07:58:57;;;;;;;14.60;7.97;;;;;;;9.97;89.81;100150.25;1747836;82;21498;-71
2022/05/18 08:01:24;;;;;;;15.32;7.33;;;;;;;9.97;89.99;100155.52;1748154;82;21200;-71
2022/05/18 08:03:51;;;;;;;17.07;7.70;;;;;;;9.96;90.50;100153.78;1747713;82;21015;-71
2022/05/18 08:06:17;;;;;;;16.45;7.55;;;;;;;9.96;90.32;100158.61;1748012;82;21076;-71
2022/05/18 08:08:44;;;;;;;17.73;8.00;;;;;;;9.97;90.11;100155.52;1748211;82;21072;-72
2022/05/18 08:16:40;;;;;;;15.48;6.80;;;;;;;9.93;92.10;100156.06;1782220;80;21548;-71
2022/05/18 08:19:10;;;;;;;15.53;7.25;;;;;;;9.95;92.43;100155.55;1784618;80;20981;-71
2022/05/18 08:21:40;;;;;;;14.25;7.62;;;;;;;10.01;92.60;100162.40;1784710;80;21020;-70
2022/05/18 08:24:07;;;;;;;11.55;7.50;;;;;;;10.08;92.46;100167.39;1784884;80;21120;-71
2022/05/18 08:26:33;;;;;;;15.40;7.50;;;;;;;10.09;91.49;100162.98;1784493;80;21717;-71
2022/05/18 08:29:01;;;;;;;12.80;6.28;;;;;;;10.09;91.14;100163.83;1784729;80;21540;-71
2022/05/18 08:31:28;;;;;;;14.13;6.47;;;;;;;10.13;90.75;100161.11;1784417;80;21025;-71
2022/05/18 08:33:55;;;;;;;14.07;7.08;;;;;;;10.09;90.81;100162.98;1784525;80;21470;-71
2022/05/18 08:36:25;;;;;;;13.50;6.75;;;;;;;10.06;91.97;100166.58;1784425;80;21658;-71
2022/05/18 08:38:55;;;;;;;12.03;6.00;;;;;;;10.01;92.15;100164.56;1784683;80;22086;-71
2022/05/18 08:41:39;;;;;;;14.13;7.20;;;;;;;10.01;92.93;100170.30;1784836;80;21759;-71
2022/05/18 08:44:07;;;;;;;10.72;6.10;;;;;;;10.02;94.40;100164.10;1784813;80;21036;-71
2022/05/18 08:46:52;;;;;;;10.23;5.30;;;;;;;10.09;95.85;100161.66;1784498;80;21020;-72
2022/05/18 08:49:45;;;;;;;12.88;5.17;;;;;;;10.12;97.03;100168.12;1780554;80;21021;-71
2022/05/18 08:52:41;;;;;;;47.38;8.18;;;;;;;10.15;97.13;100164.09;1783233;80;21141;-71
2022/05/18 08:55:50;;;;;;;11.30;4.20;;;;;;;10.17;97.67;100163.58;1784775;80;21091;-71
2022/05/18 08:58:28;;;;;;;7.70;2.30;;;;;;;10.04;98.37;100164.91;1784581;80;21060;-71
2022/05/18 09:01:05;;;;;;;5.58;2.65;;;;;;;9.98;99.60;100166.42;1784157;80;21029;-71
2022/05/18 09:03:40;;;;;;;4.22;2.22;;;;;;;9.94;99.61;100160.86;1784231;80;21012;-71
2022/05/18 09:06:33;;;;;;;5.67;2.00;;;;;;;9.91;100.00;100168.86;1784414;80;21611;-71
2022/05/18 09:11:54;;;;;;;2.67;1.70;;;;;;;9.69;100.00;100169.59;1784449;80;20989;-69
2022/05/18 09:14:24;;;;;;;2.12;0.90;;;;;;;9.59;100.00;100173.41;1763600;80;21592;-71
2022/05/18 09:17:11;;;;;;;3.12;1.12;;;;;;;9.50;100.00;100176.33;1750165;81;21504;-70
2022/05/18 09:20:13;;;;;;;3.45;1.57;;;;;;;9.42;100.00;100178.75;1747839;82;21062;-70
2022/05/18 09:22:57;;;;;;;1.82;1.40;;;;;;;9.37;100.00;100175.41;1747751;82;21076;-71
2022/05/18 09:25:39;;;;;;;1.90;1.12;;;;;;;9.35;100.00;100181.17;1747670;82;21020;-71
2022/05/18 09:28:20;;;;;;;2.75;1.30;;;;;;;9.28;100.00;100184.90;1747109;82;21045;-71
2022/05/18 09:31:10;;;;;;;7.25;1.42;;;;;;;9.13;100.00;100189.30;1706558;82;21050;-70
2022/05/18 09:34:00;;;;;;;2.70;1.60;;;;;;;9.10;100.00;100188.09;1747836;82;21139;-71
2022/05/18 09:37:13;;;;;;;3.33;1.92;;;;;;;9.12;100.00;100198.10;1748046;82;21032;-70
2022/05/18 09:39:44;;;;;;;2.40;1.25;;;;;;;9.15;100.00;100194.06;1747946;82;21017;-71
2022/05/18 09:42:14;;;;;;;2.52;1.10;;;;;;;9.03;100.00;100177.75;1748213;82;21072;-70
2022/05/18 09:44:51;;;;;;;;;;;;;;;9.20;100.00;100200.02;1750640;82;21001;-70
2022/05/18 09:47:21;;;;;;;2.15;1.32;;;;;;;9.20;100.00;100198.71;1747991;82;20760;-71
2022/05/18 09:49:54;;;;;;;2.72;1.60;;;;;;;9.18;100.00;100209.75;1747812;82;21913;-70
2022/05/18 09:52:24;;;;;;;3.12;2.12;;;;;;;9.16;100.00;100203.67;1747884;82;21536;-70
2022/05/18 09:54:53;;;;;;;5.72;2.30;;;;;;;9.23;100.00;100206.06;1747760;82;21028;-71
2022/05/18 09:57:27;;;;;;;5.10;2.45;;;;;;;9.36;100.00;100206.56;1747855;82;21025;-71
2022/05/18 09:59:56;;;;;;;2.98;1.85;;;;;;;9.56;100.00;100205.92;1747691;82;21707;-71
2022/05/18 10:08:02;;;;;;;2.62;1.95;;;;;;;10.19;100.00;100206.94;1747913;82;21087;-70
2022/05/18 10:10:36;;;;;;;3.72;2.17;;;;;;;10.31;100.00;100216.21;1695444;82;20997;-70
2022/05/18 10:13:18;;;;;;;5.03;2.15;;;;;;;10.35;100.00;100221.78;1752315;80;21051;-70
2022/05/18 10:15:48;;;;;;;3.12;2.20;;;;;;;10.36;100.00;100231.41;1778685;80;21065;-71
2022/05/18 10:18:25;;;;;;;6.75;3.20;;;;;;;10.31;100.00;100233.32;1778589;80;21008;-70
2022/05/18 10:21:25;;;;;;;6.55;3.10;;;;;;;10.26;100.00;100237.39;1778034;80;21048;-71
2022/05/18 10:23:58;;;;;;;4.55;2.92;;;;;;;10.15;100.00;100231.20;1778980;80;21048;-71
2022/05/18 10:26:40;;;;;;;4.12;3.08;;;;;;;10.04;100.00;100242.53;1778732;80;21215;-71
2022/05/18 10:29:18;;;;;;;6.75;3.10;;;;;;;10.01;100.00;100241.33;1778794;80;21113;-71
2022/05/18 10:32:08;;;;;;;5.67;3.50;;;;;;;9.93;100.00;100241.56;1778665;80;21056;-71
2022/05/18 10:34:45;;;;;;;4.45;3.60;;;;;;;9.83;100.00;100245.41;1779029;80;21537;-72
2022/05/18 10:37:13;;;;;;;7.67;3.85;;;;;;;9.71;100.00;100251.92;1778434;80;21041;-71
2022/05/18 10:39:44;;;;;;;7.20;4.05;;;;;;;9.64;100.00;100256.52;1778748;80;21867;-71
2022/05/18 10:42:23;;;;;;;6.53;4.20;;;;;;;9.59;100.00;100257.55;1748324;80;21075;-70
2022/05/18 10:44:51;;;;;;;5.97;3.87;;;;;;;9.58;100.00;100267.67;1779194;80;21010;-70
2022/05/18 10:47:36;;;;;;;9.23;4.15;;;;;;;9.57;100.00;100268.56;1748225;80;21378;-71
2022/05/18 10:50:24;;;;;;;4.97;3.58;;;;;;;9.56;100.00;100269.48;1779138;80;21045;-70
2022/05/18 10:53:17;;;;;;;6.62;4.47;;;;;;;9.57;100.00;100272.50;1778581;80;21211;-70
2022/05/18 10:56:07;;;;;;;4.50;4.00;;;;;;;9.61;100.00;100271.51;1778951;80;21012;-70
2022/05/18 10:58:43;;;;;;;;;;;;;;;9.70;100.00;100265.97;1781317;80;21032;-71
2022/05/18 11:01:28;;;;;;;5.60;4.47;;;;;;;9.86;100.00;100265.88;1779149;80;20434;-71
2022/05/18 11:04:09;;;;;;;7.75;3.83;;;;;;;10.02;100.00;100274.61;1779066;80;21076;-73
2022/05/18 11:06:39;;;;;;;4.87;3.85;;;;;;;10.15;100.00;100262.78;1778686;80;21452;-72
2022/05/18 11:09:17;;;;;;;8.03;4.00;;;;;;;10.33;100.00;100270.98;1778734;80;21517;-71
2022/05/18 11:11:55;;;;;;;5.70;3.67;;;;;;;10.45;100.00;100263.55;1779307;80;21045;-71
2022/05/18 11:14:56;;;;;;;4.45;3.75;;;;;;;10.54;100.00;100272.91;1754293;80;20993;-70
2022/05/18 11:17:46;;;;;;;5.00;3.58;;;;;;;10.64;100.00;100275.61;1747903;81;26423;-70
2022/05/18 11:20:35;;;;;;;5.08;3.67;;;;;;;10.75;100.00;100273.07;1747980;82;21162;-71
2022/05/18 11:23:27;;;;;;;4.72;3.87;;;;;;;10.90;100.00;100277.77;1748153;82;21068;-71
2022/05/18 11:26:20;;;;;;;6.58;3.92;;;;;;;11.04;100.00;100273.31;1748069;82;21005;-70
2022/05/18 11:29:03;;;;;;;3.83;3.05;;;;;;;11.15;100.00;100284.80;1748117;82;21033;-70
2022/05/18 11:31:53;;;;;;;5.35;3.50;;;;;;;11.24;100.00;100289.26;1748011;82;21068;-72
2022/05/18 11:34:45;;;;;;;5.78;3.83;;;;;;;11.26;100.00;100291.38;1751192;80;21366;-71
2022/05/18 11:38:00;;;;;;;5.50;3.85;;;;;;;11.26;100.00;100298.44;1778559;80;21561;-71
2022/05/18 11:40:56;;;;;;;6.20;4.10;;;;;;;11.20;99.53;100305.25;1779258;80;21029;-71
2022/05/18 11:43:53;;;;;;;6.33;3.52;;;;;;;10.93;97.24;100315.89;1778419;80;21037;-70
2022/05/18 11:46:38;;;;;;;4.72;4.00;;;;;;;10.74;99.17;100320.06;1779073;80;21037;-71
2022/05/18 11:49:31;;;;;;;4.90;3.70;;;;;;;10.58;100.00;100316.66;1778676;80;21907;-71
2022/05/18 11:52:21;;;;;;;4.35;3.95;;;;;;;10.51;100.00;100320.39;1774863;80;21641;-71
2022/05/18 11:55:11;;;;;;;4.08;3.67;;;;;;;10.54;100.00;100320.30;1778735;80;21057;-71
2022/05/18 11:58:05;;;;;;;4.95;4.45;;;;;;;10.68;100.00;100325.10;1778811;80;20989;-71
2022/05/18 12:00:52;;;;;;;6.65;4.20;;;;;;;10.89;100.00;100321.70;1778897;80;21044;-70
2022/05/18 12:03:52;;;;;;;10.45;5.17;;;;;;;11.08;100.00;100319.27;1778179;80;21100;-71
2022/05/18 12:06:36;;;;;;;7.47;4.35;;;;;;;11.23;99.40;100327.56;1778182;80;21029;-71